Time;durP1;ratioP1;P1;durP2;ratioP2;P2;SDS_P1;SDS_P2;PMS_P1;PMS_P2;Temp;Humidity;BMP_temperature;BMP_pressure;BME280_temperature;BME280_humidity;BME280_pressure;Samples;Min_cycle;Max_cycle;Signal;HPM_P1;HPM_P2
2022/05/04 00:00:05;;;;;;;4.68;4.05;;;20.00;97.00;;;;;;4176361;28;20648;-77
2022/05/04 00:02:07;;;;;;;7.00;4.07;;;20.00;97.20;;;;;;4176627;28;21699;-77
2022/05/04 00:04:09;;;;;;;4.78;4.13;;;20.00;97.00;;;;;;4176182;28;20227;-77
2022/05/04 00:06:13;;;;;;;6.57;3.58;;;20.00;97.10;;;;;;4176213;28;20228;-77
2022/05/04 00:08:15;;;;;;;5.70;4.35;;;20.00;97.10;;;;;;4176897;28;20223;-77
2022/05/04 00:10:18;;;;;;;4.18;3.67;;;20.00;97.00;;;;;;4176346;28;20231;-77
2022/05/04 00:12:20;;;;;;;6.28;4.18;;;20.00;96.90;;;;;;4176721;28;20216;-77
2022/05/04 00:14:25;;;;;;;5.93;4.07;;;20.00;97.00;;;;;;4175641;28;20293;-76
2022/05/04 00:16:27;;;;;;;7.10;3.88;;;20.00;97.30;;;;;;4175340;28;20684;-76
2022/05/04 00:18:30;;;;;;;6.57;3.55;;;20.00;97.10;;;;;;4176335;28;20813;-77
2022/05/04 00:20:32;;;;;;;5.53;4.00;;;20.00;96.90;;;;;;4175950;28;20220;-77
2022/05/04 00:22:36;;;;;;;5.70;3.58;;;20.00;97.00;;;;;;4176086;28;20227;-77
2022/05/04 00:24:38;;;;;;;4.70;4.03;;;20.00;97.00;;;;;;4175156;28;20231;-77
2022/05/04 00:26:41;;;;;;;5.78;4.03;;;20.00;96.80;;;;;;4175077;28;20224;-77
2022/05/04 00:28:43;;;;;;;6.25;4.10;;;19.90;96.90;;;;;;4175358;28;20234;-77
2022/05/04 00:30:46;;;;;;;6.35;3.55;;;20.00;97.00;;;;;;4174256;28;20285;-77
2022/05/04 00:32:48;;;;;;;5.97;3.67;;;20.00;97.10;;;;;;4174640;28;20220;-77
2022/05/04 00:34:50;;;;;;;7.72;4.15;;;20.00;97.20;;;;;;4175776;28;20228;-78
2022/05/04 00:36:53;;;;;;;4.63;3.40;;;20.00;97.10;;;;;;4175535;28;20269;-78
2022/05/04 00:38:56;;;;;;;4.45;3.35;;;20.00;97.10;;;;;;4177110;28;20223;-78
2022/05/04 00:40:59;;;;;;;4.18;3.72;;;19.90;96.90;;;;;;4175718;28;20269;-78
2022/05/04 00:43:01;;;;;;;4.88;4.03;;;20.00;96.80;;;;;;4176575;28;20642;-78
2022/05/04 00:45:04;;;;;;;5.95;3.45;;;19.90;96.70;;;;;;4177362;28;20674;-78
2022/05/04 00:47:07;;;;;;;5.75;3.63;;;19.90;96.90;;;;;;4176652;28;20219;-78
2022/05/04 00:49:09;;;;;;;5.57;3.35;;;20.00;96.90;;;;;;4176720;28;20281;-77
2022/05/04 00:51:12;;;;;;;5.43;3.53;;;20.00;96.90;;;;;;4176123;28;20232;-78
2022/05/04 00:53:15;;;;;;;6.65;4.07;;;19.90;96.90;;;;;;4176331;28;20845;-78
2022/05/04 00:55:20;;;;;;;5.70;3.67;;;19.90;96.80;;;;;;4176508;28;20220;-78
2022/05/04 00:59:39;;;;;;;5.75;3.53;;;20.00;96.90;;;;;;4175937;28;20601;-78
2022/05/04 01:01:43;;;;;;;4.70;3.78;;;19.90;96.80;;;;;;4176071;28;20671;-77
2022/05/04 01:03:46;;;;;;;4.63;3.45;;;19.90;97.10;;;;;;4175805;28;21548;-78
2022/05/04 01:05:48;;;;;;;4.88;3.65;;;19.90;97.00;;;;;;4176881;28;20250;-78
2022/05/04 01:07:52;;;;;;;5.05;3.75;;;19.90;96.90;;;;;;4176484;28;20219;-77
2022/05/04 01:09:55;;;;;;;5.32;3.53;;;19.90;97.00;;;;;;4176721;28;20223;-78
2022/05/04 01:11:58;;;;;;;5.53;3.42;;;19.90;96.90;;;;;;4176378;28;20231;-78
2022/05/04 01:14:03;;;;;;;6.47;3.55;;;19.90;96.70;;;;;;4176197;28;20614;-77
2022/05/04 01:16:05;;;;;;;5.03;3.55;;;19.90;96.80;;;;;;4176048;28;20227;-78
2022/05/04 01:18:07;;;;;;;6.35;3.75;;;19.80;96.60;;;;;;4176119;28;20232;-78
2022/05/04 01:20:11;;;;;;;5.78;3.55;;;19.80;96.80;;;;;;4175090;28;20660;-77
2022/05/04 01:22:15;;;;;;;5.47;3.63;;;19.80;96.80;;;;;;4176086;28;20232;-78
2022/05/04 01:24:17;;;;;;;6.00;3.45;;;19.80;96.60;;;;;;4175895;28;21018;-78
2022/05/04 01:26:19;;;;;;;7.00;3.80;;;19.80;96.60;;;;;;4176482;28;20277;-78
2022/05/04 01:28:22;;;;;;;4.90;3.65;;;19.80;97.00;;;;;;4176010;28;20232;-78
2022/05/04 01:30:24;;;;;;;4.32;3.45;;;19.80;96.80;;;;;;4175363;28;20219;-78
2022/05/04 01:32:27;;;;;;;7.38;3.42;;;19.80;96.70;;;;;;4175891;28;20342;-78
2022/05/04 01:34:29;;;;;;;5.43;3.80;;;19.80;96.90;;;;;;4175626;28;20308;-77
2022/05/04 01:36:31;;;;;;;6.38;3.90;;;19.80;96.50;;;;;;4176239;28;20220;-78
2022/05/04 01:38:36;;;;;;;5.15;3.38;;;19.80;96.60;;;;;;4176669;28;20730;-78
2022/05/04 01:40:38;;;;;;;6.05;4.03;;;19.80;96.80;;;;;;4174723;28;20219;-78
2022/05/04 01:42:40;;;;;;;7.13;3.63;;;19.80;96.70;;;;;;4178767;28;20219;-78
2022/05/04 01:44:43;;;;;;;5.72;3.13;;;19.80;96.70;;;;;;4177512;28;20348;-78
2022/05/04 01:46:46;;;;;;;3.85;3.25;;;19.80;96.60;;;;;;4179726;28;20215;-77
2022/05/04 01:48:49;;;;;;;5.70;3.80;;;19.80;96.70;;;;;;4179781;28;20232;-78
2022/05/04 01:50:51;;;;;;;5.30;3.30;;;19.80;96.70;;;;;;4179949;28;20219;-78
2022/05/04 01:52:54;;;;;;;5.75;3.45;;;19.80;96.60;;;;;;4179713;28;20220;-78
2022/05/04 01:55:00;;;;;;;5.15;3.40;;;19.80;96.60;;;;;;4179629;28;20647;-78
2022/05/04 01:57:02;;;;;;;6.63;3.53;;;19.80;96.60;;;;;;4179101;28;20293;-78
2022/05/04 01:59:04;;;;;;;5.38;2.90;;;19.80;96.60;;;;;;4178954;28;20269;-78
2022/05/04 02:01:07;;;;;;;5.93;3.53;;;19.80;96.70;;;;;;4179512;28;20245;-78
2022/05/04 02:03:09;;;;;;;6.03;3.72;;;19.80;96.70;;;;;;4179180;28;20291;-78
2022/05/04 02:05:12;;;;;;;6.20;3.10;;;19.80;96.70;;;;;;4177170;28;20239;-78
2022/05/04 02:07:14;;;;;;;5.32;3.63;;;19.80;96.60;;;;;;4179845;28;20266;-78
2022/05/04 02:09:17;;;;;;;5.60;3.42;;;19.70;96.60;;;;;;4179353;28;20330;-77
2022/05/04 02:11:21;;;;;;;6.53;3.42;;;19.70;96.60;;;;;;4179700;28;20625;-78
2022/05/04 02:13:23;;;;;;;4.25;3.13;;;19.70;96.50;;;;;;4179876;28;20277;-78
2022/05/04 02:15:25;;;;;;;3.83;3.10;;;19.70;96.50;;;;;;4178806;28;20231;-78
2022/05/04 02:17:28;;;;;;;5.60;3.17;;;19.70;96.40;;;;;;4179191;28;20220;-78
2022/05/04 02:19:30;;;;;;;6.07;3.45;;;19.80;96.60;;;;;;4177886;28;20251;-78
2022/05/04 02:21:33;;;;;;;4.55;3.30;;;19.70;96.50;;;;;;4179293;28;20219;-77
2022/05/04 02:23:35;;;;;;;4.22;3.40;;;19.70;96.50;;;;;;4179807;28;20219;-78
2022/05/04 02:25:37;;;;;;;6.18;3.70;;;19.70;96.50;;;;;;4179078;28;20223;-78
2022/05/04 02:27:41;;;;;;;4.15;3.22;;;19.70;96.50;;;;;;4180208;28;20925;-78
2022/05/04 02:29:43;;;;;;;4.45;3.25;;;19.70;96.50;;;;;;4178757;28;20215;-78
2022/05/04 02:31:45;;;;;;;3.83;3.17;;;19.70;96.50;;;;;;4178607;28;20273;-77
2022/05/04 02:33:49;;;;;;;3.70;2.88;;;19.70;96.50;;;;;;4179109;28;20248;-78
2022/05/04 02:38:11;;;;;;;3.75;3.20;;;19.70;96.50;;;;;;4179377;28;20195;-78
2022/05/04 02:40:13;;;;;;;4.53;3.00;;;19.70;96.50;;;;;;4178718;28;20270;-78
2022/05/04 02:42:15;;;;;;;4.63;3.15;;;19.70;96.50;;;;;;4176799;28;20212;-78
2022/05/04 02:44:19;;;;;;;6.15;3.60;;;19.60;96.40;;;;;;4179088;28;20640;-77
2022/05/04 02:46:23;;;;;;;4.72;3.13;;;19.70;96.50;;;;;;4178096;28;20726;-78
2022/05/04 02:48:25;;;;;;;4.50;3.42;;;19.60;96.40;;;;;;4179306;28;20224;-78
2022/05/04 02:50:27;;;;;;;4.80;3.40;;;19.60;96.40;;;;;;4178740;28;20224;-78
2022/05/04 02:52:30;;;;;;;3.75;2.97;;;19.60;96.30;;;;;;4178857;28;20231;-78
2022/05/04 02:54:32;;;;;;;6.13;3.33;;;19.60;96.40;;;;;;4179591;28;20943;-78
2022/05/04 02:56:34;;;;;;;4.30;3.10;;;19.60;96.40;;;;;;4178881;28;20224;-78
2022/05/04 02:58:37;;;;;;;5.10;2.90;;;19.60;96.40;;;;;;4178349;28;20783;-77
2022/05/04 03:00:40;;;;;;;3.47;3.10;;;19.70;96.40;;;;;;4179128;28;20281;-78
2022/05/04 03:02:42;;;;;;;6.38;3.35;;;19.60;96.30;;;;;;4178003;28;20265;-78
2022/05/04 03:04:44;;;;;;;4.63;3.20;;;19.60;96.40;;;;;;4178769;28;20231;-78
2022/05/04 03:06:47;;;;;;;4.63;3.03;;;19.70;96.40;;;;;;4177867;28;20224;-78
2022/05/04 03:08:49;;;;;;;3.78;2.85;;;19.60;96.40;;;;;;4178317;28;21563;-78
2022/05/04 03:13:11;;;;;;;4.28;3.08;;;19.60;96.40;;;;;;4177831;28;20967;-78
2022/05/04 03:15:13;;;;;;;4.47;3.17;;;19.60;96.60;;;;;;4179066;28;20288;-78
2022/05/04 03:17:18;;;;;;;6.10;3.40;;;19.60;96.30;;;;;;4178090;28;20265;-78
2022/05/04 03:19:20;;;;;;;5.38;3.63;;;19.60;96.30;;;;;;4175989;28;20216;-78
2022/05/04 03:21:22;;;;;;;5.75;3.55;;;19.60;96.30;;;;;;4178263;28;20328;-78
2022/05/04 03:23:24;;;;;;;4.65;3.28;;;19.60;96.30;;;;;;4177668;28;20334;-78
2022/05/04 03:25:27;;;;;;;3.58;3.10;;;19.60;96.30;;;;;;4178139;28;20265;-78
2022/05/04 03:27:29;;;;;;;3.92;3.03;;;19.50;96.30;;;;;;4177370;28;20219;-78
2022/05/04 03:29:32;;;;;;;5.65;3.00;;;19.60;96.30;;;;;;4178446;28;20227;-78
2022/05/04 03:31:34;;;;;;;4.15;3.10;;;19.60;96.30;;;;;;4177985;28;20224;-78
2022/05/04 03:33:38;;;;;;;5.47;3.10;;;19.60;96.70;;;;;;4174330;28;20360;-78
2022/05/04 03:35:40;;;;;;;4.90;3.40;;;19.60;96.30;;;;;;4178204;28;20232;-78
2022/05/04 03:37:42;;;;;;;4.38;3.10;;;19.60;96.30;;;;;;4177715;28;20269;-78
2022/05/04 03:39:45;;;;;;;6.05;3.00;;;19.50;96.20;;;;;;4178380;28;20216;-78
2022/05/04 03:41:47;;;;;;;4.57;2.90;;;19.50;96.20;;;;;;4177530;28;20734;-78
2022/05/04 03:43:49;;;;;;;4.47;2.95;;;19.50;96.30;;;;;;4177211;28;20216;-78
2022/05/04 03:45:52;;;;;;;5.05;2.65;;;19.60;96.30;;;;;;4177815;28;20220;-78
2022/05/04 03:47:54;;;;;;;5.75;3.20;;;19.50;96.30;;;;;;4177050;28;20223;-78
2022/05/04 03:49:58;;;;;;;4.18;3.20;;;19.50;96.30;;;;;;4177442;28;20750;-77
2022/05/04 03:52:00;;;;;;;4.07;3.22;;;19.50;96.20;;;;;;4176979;28;20223;-78
2022/05/04 03:54:02;;;;;;;5.43;3.17;;;19.60;96.30;;;;;;4176498;28;20223;-78
2022/05/04 03:56:05;;;;;;;4.40;3.00;;;19.50;96.20;;;;;;4177579;28;20235;-78
2022/05/04 03:58:07;;;;;;;5.70;3.10;;;19.50;96.20;;;;;;4177014;28;20266;-78
2022/05/04 04:00:10;;;;;;;4.20;2.90;;;19.50;96.20;;;;;;4177436;28;20220;-78
2022/05/04 04:02:13;;;;;;;3.35;2.70;;;19.50;96.20;;;;;;4177692;28;20208;-78
2022/05/04 04:04:15;;;;;;;4.68;2.83;;;19.50;96.60;;;;;;4177044;28;20235;-78
2022/05/04 04:06:19;;;;;;;6.10;3.15;;;19.50;96.10;;;;;;4178008;28;20289;-78
2022/05/04 04:08:22;;;;;;;4.38;2.90;;;19.50;96.20;;;;;;4176291;28;20269;-78
2022/05/04 04:10:24;;;;;;;5.47;3.13;;;19.50;96.20;;;;;;4177349;28;20277;-78
2022/05/04 04:12:26;;;;;;;4.75;3.00;;;19.50;96.10;;;;;;4178226;28;20228;-78
2022/05/04 04:14:29;;;;;;;4.82;2.70;;;19.50;96.20;;;;;;4176562;28;20219;-78
2022/05/04 04:16:31;;;;;;;5.70;2.92;;;19.50;96.20;;;;;;4177139;28;20285;-78
2022/05/04 04:18:33;;;;;;;4.00;2.88;;;19.50;96.10;;;;;;4177306;28;20224;-77
2022/05/04 04:22:57;;;;;;;4.15;2.92;;;19.50;96.10;;;;;;4177389;28;20211;-78
2022/05/04 04:24:59;;;;;;;4.47;3.38;;;19.50;96.10;;;;;;4177315;28;20223;-78
2022/05/04 04:27:01;;;;;;;6.32;2.75;;;19.50;96.10;;;;;;4177427;28;20215;-77
2022/05/04 04:29:03;;;;;;;3.50;2.78;;;19.50;96.10;;;;;;4177732;28;20265;-78
2022/05/04 04:31:08;;;;;;;4.45;2.92;;;19.50;96.10;;;;;;4176737;28;20642;-78
2022/05/04 04:33:11;;;;;;;3.70;2.78;;;19.50;96.10;;;;;;4177054;28;20219;-77
2022/05/04 04:35:13;;;;;;;5.68;2.95;;;19.50;96.10;;;;;;4177376;28;20285;-78
2022/05/04 04:37:16;;;;;;;2.92;2.60;;;19.50;96.10;;;;;;4177148;28;20223;-77
2022/05/04 04:39:19;;;;;;;4.47;3.05;;;19.50;96.10;;;;;;4176294;28;20223;-77
2022/05/04 04:41:22;;;;;;;5.80;3.15;;;19.50;96.10;;;;;;4177377;28;20286;-78
2022/05/04 04:43:24;;;;;;;4.10;2.75;;;19.50;96.00;;;;;;4177023;28;20660;-77
2022/05/04 04:45:27;;;;;;;4.18;3.00;;;19.50;96.10;;;;;;4175547;28;20215;-78
2022/05/04 04:47:31;;;;;;;4.65;2.95;;;19.40;96.00;;;;;;4176971;28;20853;-77
2022/05/04 04:49:33;;;;;;;4.15;2.90;;;19.40;96.10;;;;;;4177217;28;20220;-78
2022/05/04 04:51:35;;;;;;;4.20;3.00;;;19.40;96.00;;;;;;4176094;28;20261;-77
2022/05/04 04:53:38;;;;;;;5.32;3.70;;;19.50;96.10;;;;;;4177256;28;20219;-77
2022/05/04 04:55:46;;;;;;;3.83;2.60;;;19.30;96.20;;;;;;4176598;28;20235;-78
2022/05/04 04:57:48;;;;;;;5.07;2.95;;;19.10;96.50;;;;;;4177128;28;20226;-78
2022/05/04 04:59:51;;;;;;;3.95;2.65;;;19.30;96.40;;;;;;4177288;28;20223;-78
2022/05/04 05:01:53;;;;;;;3.67;2.65;;;19.40;96.20;;;;;;4175960;28;20227;-78
2022/05/04 05:03:55;;;;;;;4.05;2.53;;;19.40;96.30;;;;;;4176540;28;20244;-78
2022/05/04 05:05:57;;;;;;;3.90;2.47;;;19.50;96.60;;;;;;4176381;28;20227;-78
2022/05/04 05:08:00;;;;;;;3.67;2.88;;;19.50;96.40;;;;;;4177064;28;20281;-77
2022/05/04 05:10:02;;;;;;;4.05;2.50;;;19.60;96.60;;;;;;4176850;28;20241;-78
2022/05/04 05:12:08;;;;;;;4.50;2.67;;;19.60;96.70;;;;;;4175064;28;20596;-78
2022/05/04 05:16:30;;;;;;;3.55;2.75;;;19.70;96.80;;;;;;4178463;28;20212;-78
2022/05/04 05:18:32;;;;;;;4.18;2.60;;;19.70;96.90;;;;;;4180724;28;20644;-77
2022/05/04 05:20:34;;;;;;;3.72;2.67;;;19.70;96.90;;;;;;4180473;28;20719;-78
2022/05/04 05:22:37;;;;;;;6.20;2.55;;;19.70;96.80;;;;;;4177643;28;20224;-78
2022/05/04 05:24:39;;;;;;;4.65;2.38;;;19.70;96.80;;;;;;4180386;28;20278;-77
2022/05/04 05:26:41;;;;;;;3.10;2.38;;;19.80;96.70;;;;;;4180171;28;20285;-77
2022/05/04 05:28:47;;;;;;;3.70;2.50;;;19.80;96.70;;;;;;4179707;28;20270;-78
2022/05/04 05:30:49;;;;;;;3.83;2.40;;;19.80;96.70;;;;;;4178612;28;20220;-77
2022/05/04 05:32:51;;;;;;;4.40;2.25;;;19.80;96.60;;;;;;4179096;28;20228;-77
2022/05/04 05:34:54;;;;;;;3.85;2.55;;;19.80;96.60;;;;;;4180094;28;20215;-77
2022/05/04 05:36:56;;;;;;;4.30;2.60;;;19.80;96.60;;;;;;4180465;28;20774;-78
2022/05/04 05:38:58;;;;;;;3.78;2.47;;;19.80;96.60;;;;;;4179811;28;20227;-78
2022/05/04 05:41:01;;;;;;;3.05;2.50;;;19.80;96.50;;;;;;4179583;28;20231;-78
2022/05/04 05:43:03;;;;;;;3.10;2.20;;;19.90;96.50;;;;;;4179809;28;20224;-78
2022/05/04 05:45:09;;;;;;;3.65;2.22;;;19.90;96.50;;;;;;4179954;28;20245;-78
2022/05/04 05:47:11;;;;;;;4.03;2.75;;;19.90;96.50;;;;;;4179778;28;20220;-78
2022/05/04 05:49:13;;;;;;;4.35;2.58;;;20.00;96.60;;;;;;4179383;28;20266;-78
2022/05/04 05:51:15;;;;;;;2.70;2.30;;;20.00;96.60;;;;;;4180069;28;20224;-78
2022/05/04 05:53:19;;;;;;;4.05;2.38;;;20.00;96.60;;;;;;4179710;28;20270;-78
2022/05/04 05:55:21;;;;;;;3.75;2.63;;;20.00;96.60;;;;;;4177004;28;20227;-78
2022/05/04 05:57:24;;;;;;;4.43;2.60;;;20.00;96.60;;;;;;4179239;28;20232;-78
2022/05/04 05:59:26;;;;;;;3.38;2.20;;;20.00;96.50;;;;;;4180159;28;20208;-78
2022/05/04 06:01:29;;;;;;;3.80;2.13;;;20.00;96.50;;;;;;4180016;28;20273;-78
2022/05/04 06:03:32;;;;;;;5.43;2.72;;;20.10;96.60;;;;;;4179856;28;20266;-78
2022/05/04 06:05:34;;;;;;;3.47;2.28;;;20.10;96.60;;;;;;4179690;28;20297;-77
2022/05/04 06:07:37;;;;;;;4.63;2.22;;;20.10;96.60;;;;;;4180431;28;20565;-77
2022/05/04 06:09:39;;;;;;;4.10;2.15;;;20.10;96.60;;;;;;4179770;28;20630;-78
2022/05/04 06:11:41;;;;;;;6.03;2.58;;;20.10;96.60;;;;;;4179581;28;20220;-78
2022/05/04 06:13:44;;;;;;;4.82;2.50;;;20.10;96.60;;;;;;4178798;28;20220;-78
2022/05/04 06:15:46;;;;;;;3.10;2.10;;;20.10;96.60;;;;;;4179144;28;20696;-78
2022/05/04 06:17:50;;;;;;;3.00;2.00;;;20.10;96.50;;;;;;4178965;28;20235;-78
2022/05/04 06:19:52;;;;;;;3.30;2.40;;;20.10;96.50;;;;;;4177646;28;20231;-78
2022/05/04 06:21:54;;;;;;;3.38;2.15;;;20.10;96.60;;;;;;4179169;28;20223;-77
2022/05/04 06:23:56;;;;;;;4.32;2.15;;;20.20;96.60;;;;;;4178888;28;20228;-78
2022/05/04 06:25:59;;;;;;;3.55;2.10;;;20.10;96.50;;;;;;4179310;28;20231;-78
2022/05/04 06:28:01;;;;;;;5.47;2.05;;;20.10;96.40;;;;;;4178630;28;20270;-78
2022/05/04 06:34:44;;;;;;;3.97;2.28;;;20.20;96.50;;;;;;4178261;28;20195;-78
2022/05/04 06:36:46;;;;;;;4.47;2.28;;;20.20;96.30;;;;;;4178674;28;20281;-78
2022/05/04 06:38:49;;;;;;;3.80;2.55;;;20.20;96.30;;;;;;4178524;28;20229;-78
2022/05/04 06:40:51;;;;;;;3.83;2.20;;;20.20;96.30;;;;;;4178605;28;20242;-78
2022/05/04 06:42:53;;;;;;;4.82;2.10;;;20.20;96.40;;;;;;4178175;28;20282;-78
2022/05/04 06:44:56;;;;;;;4.03;1.98;;;20.20;96.40;;;;;;4176834;28;20680;-78
2022/05/04 06:46:58;;;;;;;3.50;1.90;;;20.10;96.30;;;;;;4177584;28;20270;-78
2022/05/04 06:49:00;;;;;;;6.60;2.47;;;20.20;96.40;;;;;;4178510;28;20279;-78
2022/05/04 06:51:04;;;;;;;5.65;3.05;;;20.20;96.10;;;;;;4176122;28;20255;-77
2022/05/04 06:53:06;;;;;;;6.40;2.50;;;20.20;95.90;;;;;;4176356;28;20216;-80
2022/05/04 06:55:10;;;;;;;7.18;2.40;;;20.10;96.00;;;;;;4178793;28;20216;-80
2022/05/04 06:57:12;;;;;;;7.63;2.70;;;20.10;96.10;;;;;;4178862;28;20325;-78
2022/05/04 06:59:14;;;;;;;6.82;2.83;;;20.00;96.00;;;;;;4176323;28;20626;-79
2022/05/04 07:01:16;;;;;;;4.47;2.25;;;20.10;96.20;;;;;;4177334;28;20634;-79
2022/05/04 07:03:21;;;;;;;6.03;2.55;;;20.30;96.20;;;;;;4174893;28;20672;-77
2022/05/04 07:05:23;;;;;;;4.68;2.50;;;20.30;95.80;;;;;;4174506;28;20231;-78
2022/05/04 07:07:27;;;;;;;7.45;2.50;;;20.40;96.30;;;;;;4176606;28;20254;-75
2022/05/04 07:09:29;;;;;;;6.25;2.30;;;20.40;95.90;;;;;;4174446;28;20262;-77
2022/05/04 07:11:32;;;;;;;4.80;2.60;;;20.40;95.80;;;;;;4178033;28;20697;-77
2022/05/04 07:13:36;;;;;;;4.90;2.05;;;20.40;96.00;;;;;;4176516;28;20322;-77
2022/05/04 07:15:38;;;;;;;5.00;2.22;;;20.40;95.90;;;;;;4175073;28;20286;-76
2022/05/04 07:17:41;;;;;;;9.52;2.70;;;20.40;95.90;;;;;;4176588;28;20235;-77
2022/05/04 07:19:43;;;;;;;4.68;2.00;;;20.40;95.80;;;;;;4169675;28;20257;-77
2022/05/04 07:21:46;;;;;;;5.55;2.20;;;20.30;95.90;;;;;;4172527;28;20219;-76
2022/05/04 07:23:49;;;;;;;4.43;2.25;;;20.30;96.00;;;;;;4178104;28;20223;-77
2022/05/04 07:25:52;;;;;;;3.92;2.30;;;20.40;95.90;;;;;;4175402;28;20216;-77
2022/05/04 07:27:54;;;;;;;6.78;2.50;;;20.50;95.70;;;;;;4174147;28;20208;-78
2022/05/04 07:29:56;;;;;;;5.32;2.47;;;20.60;95.50;;;;;;4172206;28;20220;-79
2022/05/04 07:32:00;;;;;;;4.05;2.13;;;20.60;95.50;;;;;;4173785;28;20261;-79
2022/05/04 07:34:05;;;;;;;6.82;2.25;;;20.60;95.60;;;;;;4159771;28;20227;-77
2022/05/04 07:36:08;;;;;;;3.78;1.98;;;20.70;95.50;;;;;;4175051;28;20273;-77
2022/05/04 07:38:10;;;;;;;7.15;2.10;;;20.70;95.60;;;;;;4174525;28;20251;-77
2022/05/04 07:42:34;;;;;;;3.67;2.20;;;20.80;95.70;;;;;;4176858;28;20200;-76
2022/05/04 07:44:36;;;;;;;8.70;2.67;;;20.80;95.70;;;;;;4173018;28;20270;-77
2022/05/04 07:46:39;;;;;;;5.00;2.13;;;20.80;95.70;;;;;;4175880;28;20724;-76
2022/05/04 07:48:42;;;;;;;4.65;2.40;;;20.80;95.70;;;;;;4176790;28;20219;-79
2022/05/04 07:50:44;;;;;;;5.35;2.10;;;20.80;95.80;;;;;;4171029;28;20319;-79
2022/05/04 07:52:48;;;;;;;3.08;1.90;;;20.80;95.80;;;;;;4176244;28;20223;-77
2022/05/04 07:54:51;;;;;;;5.38;2.13;;;20.80;96.00;;;;;;4169690;28;20224;-77
2022/05/04 07:56:55;;;;;;;6.55;2.10;;;20.80;95.90;;;;;;4175302;28;20661;-77
2022/05/04 07:58:57;;;;;;;3.42;1.90;;;20.80;96.00;;;;;;4173517;28;20274;-80
2022/05/04 08:05:53;;;;;;;10.15;2.60;;;20.80;95.80;;;;;;4116922;28;20217;-79
2022/05/04 08:07:56;;;;;;;2.90;2.10;;;20.80;95.90;;;;;;4119533;28;20258;-77
2022/05/04 08:10:02;;;;;;;4.82;2.22;;;20.80;95.90;;;;;;4172807;28;20219;-74
2022/05/04 08:12:08;;;;;;;5.57;2.33;;;20.80;96.10;;;;;;4169405;28;20223;-74
2022/05/04 08:14:12;;;;;;;5.25;2.72;;;20.80;96.00;;;;;;4163540;28;20673;-74
2022/05/04 08:16:14;;;;;;;4.80;1.98;;;20.70;96.00;;;;;;4173699;28;20212;-75
2022/05/04 08:18:16;;;;;;;4.38;2.38;;;20.60;96.20;;;;;;4164093;28;20675;-75
2022/05/04 08:20:19;;;;;;;4.43;2.47;;;20.70;96.20;;;;;;4169235;28;20265;-76
2022/05/04 08:22:21;;;;;;;4.10;2.20;;;20.80;96.10;;;;;;4175041;28;20648;-74
2022/05/04 08:24:24;;;;;;;7.18;2.78;;;20.90;96.10;;;;;;4172365;28;20672;-73
2022/05/04 08:26:26;;;;;;;7.72;2.38;;;21.00;96.10;;;;;;4176397;28;20204;-74
2022/05/04 08:28:31;;;;;;;3.22;2.03;;;20.90;96.10;;;;;;4174118;28;20203;-74
2022/05/04 08:30:33;;;;;;;8.85;2.70;;;20.90;96.20;;;;;;4172061;28;20254;-75
2022/05/04 08:32:35;;;;;;;3.47;2.03;;;21.00;96.20;;;;;;4173155;28;20275;-75
2022/05/04 08:34:38;;;;;;;3.10;2.10;;;20.90;96.20;;;;;;4174775;28;20219;-75
2022/05/04 08:36:40;;;;;;;3.90;1.92;;;20.90;96.10;;;;;;4177001;28;20649;-74
2022/05/04 08:38:43;;;;;;;4.03;2.22;;;21.00;96.80;;;;;;4170404;28;20480;-76
2022/05/04 08:40:46;;;;;;;7.13;2.75;;;21.00;96.20;;;;;;4170807;28;21008;-75
2022/05/04 08:42:49;;;;;;;24.05;4.53;;;21.00;96.20;;;;;;4165961;28;20227;-74
2022/05/04 08:44:57;;;;;;;3.53;2.40;;;21.00;96.10;;;;;;4169640;28;20273;-74
2022/05/04 08:47:04;;;;;;;6.20;2.40;;;21.10;96.20;;;;;;4171838;28;20270;-74
2022/05/04 08:49:07;;;;;;;5.35;2.42;;;21.10;96.30;;;;;;4174669;28;20223;-75
2022/05/04 08:51:10;;;;;;;5.93;2.67;;;21.10;96.30;;;;;;4171947;28;20269;-76
2022/05/04 08:53:14;;;;;;;6.00;3.00;;;21.10;96.40;;;;;;4174933;28;20224;-76
2022/05/04 08:55:17;;;;;;;6.90;2.72;;;21.10;96.20;;;;;;4174978;28;20216;-77
2022/05/04 08:57:25;;;;;;;7.78;3.42;;;21.10;96.20;;;;;;4175187;28;20212;-77
2022/05/04 08:59:28;;;;;;;7.43;2.95;;;21.10;96.00;;;;;;4174186;28;20625;-78
2022/05/04 09:01:32;;;;;;;6.93;3.00;;;21.10;96.00;;;;;;4169024;28;20224;-78
2022/05/04 09:03:34;;;;;;;4.90;2.78;;;21.10;96.10;;;;;;4173006;28;20219;-78
2022/05/04 09:05:42;;;;;;;3.83;2.45;;;21.10;96.10;;;;;;4172420;28;20207;-77
2022/05/04 09:07:45;;;;;;;5.18;2.60;;;21.20;96.10;;;;;;4174048;28;20274;-76
2022/05/04 09:09:48;;;;;;;6.35;3.15;;;21.10;96.10;;;;;;4173358;28;21009;-78
2022/05/04 09:11:50;;;;;;;8.85;3.42;;;21.20;96.30;;;;;;4176265;28;20219;-79
2022/05/04 09:13:54;;;;;;;5.93;2.80;;;21.30;96.10;;;;;;4176472;28;20215;-80
2022/05/04 09:15:56;;;;;;;4.63;3.20;;;21.30;96.20;;;;;;4174676;28;20215;-78
2022/05/04 09:18:03;;;;;;;7.57;2.72;;;21.20;96.20;;;;;;4176004;28;20235;-77
2022/05/04 09:22:26;;;;;;;6.25;3.17;;;21.20;96.70;;;;;;4168319;28;20223;-76
2022/05/04 09:24:29;;;;;;;6.72;2.70;;;21.20;96.10;;;;;;4169626;28;20940;-76
2022/05/04 09:26:32;;;;;;;10.25;3.22;;;21.20;96.30;;;;;;4168485;28;20688;-76
2022/05/04 09:28:36;;;;;;;8.13;3.03;;;21.20;96.50;;;;;;4167479;28;20293;-77
2022/05/04 09:30:43;;;;;;;6.38;2.53;;;21.30;96.40;;;;;;4166133;28;20238;-76
2022/05/04 09:32:45;;;;;;;6.72;2.90;;;21.20;96.30;;;;;;4171158;28;20212;-77
2022/05/04 09:34:49;;;;;;;6.38;3.08;;;21.20;96.30;;;;;;4174759;28;20211;-78
2022/05/04 09:46:18;;;;;;;8.43;3.05;;;21.30;96.40;;;;;;4168793;28;20214;-77
2022/05/04 09:48:30;;;;;;;4.13;2.60;;;21.30;96.30;;;;;;4170295;28;20228;-78
2022/05/04 09:50:40;;;;;;;5.47;2.97;;;21.20;96.40;;;;;;4172400;28;20219;-78
2022/05/04 09:52:44;;;;;;;6.68;2.22;;;21.30;96.40;;;;;;4172738;28;20208;-78
2022/05/04 09:54:47;;;;;;;8.00;2.75;;;21.30;96.60;;;;;;4172953;28;20220;-78
2022/05/04 09:56:52;;;;;;;5.32;2.70;;;21.30;96.50;;;;;;4172755;28;20269;-78
2022/05/04 09:58:54;;;;;;;4.93;3.15;;;21.20;96.50;;;;;;4172628;28;20243;-78
2022/05/04 10:00:59;;;;;;;5.68;2.80;;;21.20;96.50;;;;;;4170469;28;20232;-78
2022/05/04 10:03:01;;;;;;;7.68;3.15;;;21.20;96.70;;;;;;4173168;28;20224;-77
2022/05/04 10:05:04;;;;;;;6.20;3.03;;;21.30;96.50;;;;;;4168076;28;20320;-75
2022/05/04 10:07:08;;;;;;;8.13;2.72;;;21.10;96.50;;;;;;4174075;28;20274;-77
2022/05/04 10:09:10;;;;;;;7.38;2.80;;;21.00;96.90;;;;;;4175309;28;20257;-78
2022/05/04 10:11:16;;;;;;;4.60;2.90;;;21.10;96.90;;;;;;4173496;28;20224;-77
2022/05/04 10:13:19;;;;;;;5.38;3.00;;;21.20;96.60;;;;;;4175454;28;20294;-78
2022/05/04 10:15:22;;;;;;;5.95;3.22;;;21.20;96.50;;;;;;4172790;28;20208;-79
2022/05/04 10:17:28;;;;;;;5.03;2.65;;;21.30;96.50;;;;;;4176525;28;20224;-77
2022/05/04 10:19:38;;;;;;;3.60;2.30;;;21.30;96.70;;;;;;4175176;28;20321;-77
2022/05/04 10:21:43;;;;;;;6.47;2.65;;;21.30;96.70;;;;;;4174672;28;20215;-76
2022/05/04 10:23:49;;;;;;;4.95;2.95;;;21.30;96.50;;;;;;4171258;28;20219;-75
2022/05/04 10:25:52;;;;;;;5.38;2.70;;;21.30;96.50;;;;;;4172189;28;20216;-78
2022/05/04 10:28:15;;;;;;;4.95;2.55;;;21.30;96.50;;;;;;4172862;28;20219;-77
2022/05/04 10:30:31;;;;;;;7.53;2.75;;;21.30;96.60;;;;;;4171767;28;20219;-77
2022/05/04 10:32:37;;;;;;;5.22;3.15;;;21.40;96.60;;;;;;4175204;28;20211;-77
2022/05/04 10:34:43;;;;;;;6.43;3.08;;;21.30;96.50;;;;;;4173020;28;20227;-77
2022/05/04 10:36:48;;;;;;;7.00;3.03;;;21.30;96.60;;;;;;4172778;28;20653;-77
2022/05/04 10:38:57;;;;;;;4.80;3.10;;;21.30;96.40;;;;;;4176855;28;20228;-80
2022/05/04 10:41:02;;;;;;;8.13;2.88;;;21.30;96.50;;;;;;4176610;28;20211;-78
2022/05/04 10:43:06;;;;;;;6.13;3.20;;;21.40;96.70;;;;;;4176507;28;20215;-78
2022/05/04 10:45:14;;;;;;;4.22;2.92;;;21.40;96.50;;;;;;4173917;28;20228;-81
2022/05/04 10:47:19;;;;;;;6.50;2.83;;;21.40;96.60;;;;;;4172709;28;20242;-81
2022/05/04 10:49:34;;;;;;;6.60;2.85;;;21.40;96.80;;;;;;4173780;28;20263;-78
2022/05/04 10:51:39;;;;;;;8.32;3.53;;;21.30;96.80;;;;;;4168769;28;20254;-81
2022/05/04 10:53:46;;;;;;;5.93;3.28;;;21.30;96.50;;;;;;4171573;28;20232;-77
2022/05/04 10:56:21;;;;;;;10.48;3.15;;;21.20;96.60;;;;;;4172143;28;20219;-78
2022/05/04 10:58:38;;;;;;;6.15;2.83;;;21.20;97.20;;;;;;4167473;28;20215;-78
2022/05/04 11:01:11;;;;;;;5.93;2.65;;;21.20;96.70;;;;;;4165998;28;20215;-78
2022/05/04 11:03:13;;;;;;;5.63;3.30;;;21.20;96.70;;;;;;4174134;28;20664;-78
2022/05/04 11:05:15;;;;;;;7.82;2.80;;;21.30;96.70;;;;;;4172153;28;20235;-78
2022/05/04 11:07:18;;;;;;;4.35;2.58;;;21.30;97.00;;;;;;4173033;28;20309;-78
2022/05/04 11:09:21;;;;;;;4.82;2.60;;;21.20;97.00;;;;;;4169380;28;21072;-78
2022/05/04 11:11:25;;;;;;;4.15;2.47;;;21.20;97.00;;;;;;4171869;28;20212;-79
2022/05/04 11:13:28;;;;;;;6.18;2.58;;;21.30;97.00;;;;;;4174631;28;20273;-77
2022/05/04 11:15:39;;;;;;;5.70;2.45;;;21.30;97.40;;;;;;4172187;28;20734;-77